Time;durP1;ratioP1;P1;durP2;ratioP2;P2;SDS_P1;SDS_P2;PMS_P1;PMS_P2;Temp;Humidity;BMP_temperature;BMP_pressure;BME280_temperature;BME280_humidity;BME280_pressure;Samples;Min_cycle;Max_cycle;Signal;HPM_P1;HPM_P2
2023/09/24 00:00:58;;;;;;;5.70;3.20;;;12.60;99.90;;;;;;5072270;28;20090;-86
2023/09/24 00:03:25;;;;;;;6.50;3.22;;;12.50;99.90;;;;;;5074424;28;20032;-86
2023/09/24 00:05:52;;;;;;;7.88;3.78;;;12.50;99.90;;;;;;5074027;28;20055;-85
2023/09/24 00:08:18;;;;;;;7.82;3.70;;;12.50;99.90;;;;;;5074117;28;20020;-85
2023/09/24 00:10:52;;;;;;;7.60;3.30;;;12.50;99.90;;;;;;5074230;28;20020;-85
2023/09/24 00:13:18;;;;;;;6.25;3.45;;;12.50;99.90;;;;;;5073477;28;20020;-85
2023/09/24 00:15:44;;;;;;;8.95;3.67;;;12.50;99.90;;;;;;5073433;28;20408;-85
2023/09/24 00:18:10;;;;;;;10.50;4.20;;;12.40;99.90;;;;;;5073701;28;20035;-85
2023/09/24 00:20:35;;;;;;;6.30;3.75;;;12.50;99.90;;;;;;5073712;28;20033;-85
2023/09/24 00:23:01;;;;;;;10.05;3.78;;;12.40;99.90;;;;;;5072566;28;20084;-85
2023/09/24 00:25:28;;;;;;;6.78;3.63;;;12.40;99.90;;;;;;5073783;28;20023;-85
2023/09/24 00:27:54;;;;;;;10.15;3.70;;;12.40;99.90;;;;;;5072308;28;20099;-85
2023/09/24 00:30:20;;;;;;;6.53;3.50;;;12.40;99.90;;;;;;5073173;28;20021;-85
2023/09/24 00:32:46;;;;;;;8.73;4.15;;;12.40;99.90;;;;;;5072345;28;20032;-85
2023/09/24 00:35:11;;;;;;;10.73;3.95;;;12.30;99.90;;;;;;5073410;28;20030;-85
2023/09/24 00:37:37;;;;;;;6.88;3.28;;;12.30;99.90;;;;;;5072692;28;20024;-85
2023/09/24 00:40:04;;;;;;;9.23;4.43;;;12.30;99.90;;;;;;5073711;28;20075;-85
2023/09/24 00:42:32;;;;;;;10.25;4.80;;;12.20;99.90;;;;;;5073768;28;20017;-85
2023/09/24 00:44:58;;;;;;;8.85;4.47;;;12.20;99.90;;;;;;5073381;28;20028;-85
2023/09/24 00:47:24;;;;;;;8.38;3.72;;;12.20;99.90;;;;;;5073691;28;20020;-85
2023/09/24 00:49:51;;;;;;;10.10;4.22;;;12.20;99.90;;;;;;5073474;28;20066;-85
2023/09/24 00:52:17;;;;;;;7.55;4.18;;;12.10;99.90;;;;;;5074405;28;20016;-85
2023/09/24 00:54:43;;;;;;;10.63;3.92;;;12.10;99.90;;;;;;5074602;28;20024;-85
2023/09/24 00:57:10;;;;;;;13.52;4.70;;;12.10;99.90;;;;;;5075189;28;20032;-84
2023/09/24 00:59:38;;;;;;;8.15;4.57;;;12.00;99.90;;;;;;5075246;28;20017;-85
2023/09/24 01:02:07;;;;;;;9.63;4.32;;;12.00;99.90;;;;;;5075607;28;20113;-85
2023/09/24 01:04:33;;;;;;;8.63;4.88;;;12.10;99.90;;;;;;5076027;28;20027;-85
2023/09/24 01:06:58;;;;;;;7.78;4.35;;;12.10;99.90;;;;;;5074757;28;20024;-85
2023/09/24 01:09:24;;;;;;;9.18;4.90;;;12.00;99.90;;;;;;5072707;28;21380;-86
2023/09/24 01:11:52;;;;;;;14.05;4.60;;;12.00;99.90;;;;;;5075592;28;20032;-85
2023/09/24 01:14:18;;;;;;;10.50;4.97;;;12.00;99.90;;;;;;5075527;28;20051;-85
2023/09/24 01:16:44;;;;;;;11.45;5.82;;;12.00;99.90;;;;;;5074739;28;20391;-85
2023/09/24 01:19:10;;;;;;;9.82;5.10;;;12.00;99.90;;;;;;5073344;28;20518;-85
2023/09/24 01:21:36;;;;;;;10.35;5.38;;;11.90;99.90;;;;;;5071963;28;20032;-85
2023/09/24 01:24:03;;;;;;;10.30;5.05;;;12.00;99.90;;;;;;5072319;28;20028;-85
2023/09/24 01:26:29;;;;;;;13.60;5.60;;;11.90;99.90;;;;;;5071546;28;20078;-85
2023/09/24 01:28:54;;;;;;;10.32;5.25;;;12.00;99.90;;;;;;5072654;28;20028;-85
2023/09/24 01:31:20;;;;;;;12.93;6.15;;;11.90;99.90;;;;;;5069388;28;20025;-85
2023/09/24 01:33:49;;;;;;;11.75;4.90;;;11.90;99.90;;;;;;5034844;28;20028;-85
2023/09/24 01:36:15;;;;;;;12.55;5.40;;;11.90;99.90;;;;;;5034771;28;20444;-85
2023/09/24 01:38:41;;;;;;;10.20;5.25;;;11.90;99.90;;;;;;5052877;28;20048;-85
2023/09/24 01:41:10;;;;;;;9.57;5.40;;;11.90;99.90;;;;;;5052584;28;20056;-85
2023/09/24 01:43:39;;;;;;;9.65;5.88;;;11.90;99.90;;;;;;5055105;28;20108;-84
2023/09/24 01:46:08;;;;;;;14.20;6.13;;;11.80;99.90;;;;;;5056572;28;20083;-85
2023/09/24 01:48:35;;;;;;;11.80;6.28;;;11.90;99.90;;;;;;5038759;28;20021;-85
2023/09/24 01:51:07;;;;;;;10.40;5.28;;;11.80;99.90;;;;;;5038836;28;20027;-85
2023/09/24 01:53:37;;;;;;;12.30;5.40;;;11.80;99.90;;;;;;5056108;28;20032;-85
2023/09/24 01:56:04;;;;;;;10.77;5.60;;;11.80;99.90;;;;;;5038547;28;20071;-85
2023/09/24 01:58:31;;;;;;;10.00;6.07;;;11.80;99.90;;;;;;5038442;28;20377;-85
2023/09/24 02:00:56;;;;;;;13.50;6.35;;;11.80;99.90;;;;;;5056052;28;20079;-85
2023/09/24 02:03:22;;;;;;;10.75;5.75;;;11.80;99.90;;;;;;5056264;28;20445;-85
2023/09/24 02:05:47;;;;;;;14.15;6.57;;;11.80;99.90;;;;;;5038604;28;20495;-85
2023/09/24 02:08:14;;;;;;;11.07;6.30;;;11.80;99.90;;;;;;5056287;28;20055;-85
2023/09/24 02:10:41;;;;;;;11.30;6.00;;;11.70;99.90;;;;;;5038067;28;20086;-86
2023/09/24 02:13:11;;;;;;;11.18;6.10;;;11.70;99.90;;;;;;5038199;28;20070;-85
2023/09/24 02:15:38;;;;;;;11.75;6.22;;;11.70;99.90;;;;;;5038365;28;20102;-85
2023/09/24 02:18:04;;;;;;;11.93;6.78;;;11.60;99.90;;;;;;5056288;28;20476;-85
2023/09/24 02:22:57;;;;;;;11.13;6.22;;;11.60;99.90;;;;;;5056199;28;20098;-84
2023/09/24 02:25:30;;;;;;;12.40;5.97;;;11.60;99.90;;;;;;5037491;28;20079;-85
2023/09/24 02:27:57;;;;;;;14.67;5.97;;;11.60;99.90;;;;;;5052275;28;20028;-85
2023/09/24 02:30:27;;;;;;;13.35;6.35;;;11.60;99.90;;;;;;5055746;28;20017;-85
2023/09/24 02:32:52;;;;;;;8.93;5.97;;;11.60;99.90;;;;;;5055833;28;20025;-85
2023/09/24 02:35:18;;;;;;;12.68;6.93;;;11.50;99.90;;;;;;5037804;28;20063;-85
2023/09/24 02:37:53;;;;;;;15.82;6.85;;;11.60;99.90;;;;;;5055396;28;20530;-85
2023/09/24 02:40:23;;;;;;;10.27;5.82;;;11.50;99.90;;;;;;5055576;28;20083;-85
2023/09/24 02:43:07;;;;;;;13.02;6.63;;;11.50;99.90;;;;;;5055550;28;20104;-85
2023/09/24 02:45:33;;;;;;;11.45;6.15;;;11.50;99.90;;;;;;5055542;28;20025;-84
2023/09/24 02:47:59;;;;;;;13.45;6.45;;;11.40;99.90;;;;;;5055211;28;20033;-77
2023/09/24 02:50:27;;;;;;;11.13;5.72;;;11.40;99.90;;;;;;5037344;28;20423;-77
2023/09/24 02:53:05;;;;;;;11.18;6.20;;;11.40;99.90;;;;;;5055017;28;20546;-78
2023/09/24 02:55:31;;;;;;;10.70;6.20;;;11.40;99.90;;;;;;5054983;28;20108;-77
2023/09/24 02:57:57;;;;;;;13.90;6.53;;;11.40;99.90;;;;;;5054977;28;20060;-77
2023/09/24 03:00:34;;;;;;;11.45;6.70;;;11.40;99.90;;;;;;5054651;28;20075;-78
2023/09/24 03:03:00;;;;;;;15.85;6.57;;;11.40;99.90;;;;;;5055128;28;20047;-78
2023/09/24 03:05:28;;;;;;;10.02;5.35;;;11.40;99.90;;;;;;5054993;28;20103;-77
2023/09/24 03:07:55;;;;;;;10.40;5.40;;;11.30;99.90;;;;;;5054936;28;20100;-78
2023/09/24 03:10:21;;;;;;;11.07;6.82;;;11.30;99.90;;;;;;5054587;28;20048;-77
2023/09/24 03:12:48;;;;;;;11.23;6.40;;;11.30;99.90;;;;;;5054862;28;20388;-78
2023/09/24 03:15:14;;;;;;;13.60;7.07;;;11.30;99.90;;;;;;5036760;28;20021;-77
2023/09/24 03:17:40;;;;;;;16.10;7.25;;;11.30;99.90;;;;;;5054684;28;20017;-77
2023/09/24 03:20:19;;;;;;;12.68;6.50;;;11.30;99.90;;;;;;5054670;28;20064;-78
2023/09/24 03:22:53;;;;;;;10.60;6.22;;;11.30;99.90;;;;;;5036678;28;20373;-77
2023/09/24 03:25:24;;;;;;;14.25;6.60;;;11.30;99.90;;;;;;5054366;28;20028;-78
2023/09/24 03:27:53;;;;;;;12.57;7.45;;;11.30;99.90;;;;;;5054423;28;20021;-77
2023/09/24 03:30:19;;;;;;;12.80;6.78;;;11.20;99.90;;;;;;5054500;28;20032;-77
2023/09/24 03:32:50;;;;;;;11.75;6.13;;;11.20;99.90;;;;;;5054288;28;20547;-77
2023/09/24 03:35:19;;;;;;;9.43;5.93;;;11.20;99.90;;;;;;5054523;28;20032;-78
2023/09/24 03:37:45;;;;;;;9.73;5.80;;;11.20;99.90;;;;;;5036417;28;20025;-78
2023/09/24 03:40:15;;;;;;;11.18;5.82;;;11.10;99.90;;;;;;5053970;28;20025;-78
2023/09/24 03:42:41;;;;;;;15.83;6.40;;;11.20;99.90;;;;;;5054194;28;20108;-77
2023/09/24 03:45:17;;;;;;;10.32;6.38;;;11.10;99.90;;;;;;5036252;28;20100;-77
2023/09/24 03:47:45;;;;;;;11.70;6.88;;;11.10;99.90;;;;;;5054272;28;20017;-77
2023/09/24 03:50:16;;;;;;;11.63;7.35;;;11.10;99.90;;;;;;5053961;28;20389;-77
2023/09/24 03:52:47;;;;;;;11.48;7.22;;;11.10;99.90;;;;;;5053993;28;20595;-77
2023/09/24 03:55:15;;;;;;;10.30;6.70;;;11.10;99.90;;;;;;5053905;28;20039;-77
2023/09/24 03:57:42;;;;;;;12.90;7.20;;;11.10;99.90;;;;;;5036042;28;20040;-78
2023/09/24 04:00:11;;;;;;;12.93;7.30;;;11.10;99.90;;;;;;5053722;28;20025;-77
2023/09/24 04:02:40;;;;;;;12.75;6.97;;;11.10;99.90;;;;;;5035803;28;20045;-77
2023/09/24 04:05:09;;;;;;;9.13;6.50;;;11.10;99.90;;;;;;5053072;28;20503;-77
2023/09/24 04:07:38;;;;;;;12.73;6.55;;;11.10;99.90;;;;;;5053209;28;20051;-77
2023/09/24 04:10:08;;;;;;;16.02;7.15;;;11.10;99.90;;;;;;5053784;28;20104;-78
2023/09/24 04:12:34;;;;;;;12.65;6.40;;;11.00;99.90;;;;;;5053833;28;20027;-77
2023/09/24 04:15:01;;;;;;;11.25;6.82;;;11.00;99.90;;;;;;5053627;28;20475;-77
2023/09/24 04:17:26;;;;;;;14.27;6.70;;;11.00;99.90;;;;;;5035744;28;20468;-77
2023/09/24 04:19:52;;;;;;;12.57;7.03;;;11.00;99.90;;;;;;5053517;28;20079;-77
2023/09/24 04:22:18;;;;;;;13.68;6.63;;;10.90;99.90;;;;;;5053285;28;20025;-77
2023/09/24 04:24:44;;;;;;;14.45;7.50;;;10.90;99.90;;;;;;5053432;28;20025;-77
2023/09/24 04:27:10;;;;;;;11.95;7.20;;;10.90;99.90;;;;;;5053406;28;20096;-77
2023/09/24 04:29:37;;;;;;;9.05;6.40;;;10.90;99.90;;;;;;5053296;28;20109;-77
2023/09/24 04:32:02;;;;;;;14.35;7.97;;;10.90;99.90;;;;;;5053341;28;20075;-77
2023/09/24 04:34:28;;;;;;;12.75;6.88;;;10.80;99.90;;;;;;5054779;28;20391;-77
2023/09/24 04:36:54;;;;;;;14.68;7.47;;;10.80;99.90;;;;;;5035503;28;20032;-78
2023/09/24 04:39:19;;;;;;;11.15;7.53;;;10.80;99.90;;;;;;5055270;28;20081;-77
2023/09/24 04:41:47;;;;;;;13.63;7.35;;;10.90;99.90;;;;;;5072890;28;20113;-77
2023/09/24 04:44:13;;;;;;;12.83;7.87;;;10.80;99.90;;;;;;5072823;28;20094;-76
2023/09/24 04:46:39;;;;;;;12.48;7.53;;;10.80;99.90;;;;;;5062777;28;20020;-77
2023/09/24 04:49:05;;;;;;;16.40;8.23;;;10.80;99.90;;;;;;5069985;28;20024;-77
2023/09/24 04:51:32;;;;;;;11.45;7.60;;;10.80;99.90;;;;;;5067172;28;20086;-77
2023/09/24 04:54:00;;;;;;;15.15;7.35;;;10.80;99.90;;;;;;5053022;28;20032;-77
2023/09/24 04:56:26;;;;;;;11.90;7.20;;;10.80;99.90;;;;;;5035086;28;20472;-78
2023/09/24 04:58:51;;;;;;;16.17;8.50;;;10.80;99.90;;;;;;5052796;28;20025;-77
2023/09/24 05:01:17;;;;;;;15.80;7.60;;;10.80;99.90;;;;;;5052475;28;20059;-77
2023/09/24 05:03:42;;;;;;;13.23;7.50;;;10.80;99.90;;;;;;5052917;28;20040;-77
2023/09/24 05:06:08;;;;;;;13.30;7.67;;;10.70;99.90;;;;;;5052783;28;20029;-77
2023/09/24 05:08:34;;;;;;;11.02;7.28;;;10.70;99.90;;;;;;5053009;28;20033;-77
2023/09/24 05:11:02;;;;;;;11.13;7.20;;;10.70;99.90;;;;;;5052872;28;20033;-77
2023/09/24 05:13:28;;;;;;;10.20;7.10;;;10.70;99.90;;;;;;5052510;28;20044;-78
2023/09/24 05:15:58;;;;;;;12.13;6.82;;;10.70;99.90;;;;;;5052856;28;20029;-78
2023/09/24 05:18:24;;;;;;;11.98;6.82;;;10.70;99.90;;;;;;5056929;28;20032;-78
2023/09/24 05:20:49;;;;;;;11.25;5.70;;;10.60;99.90;;;;;;5056606;28;20037;-78
2023/09/24 05:23:15;;;;;;;10.13;5.40;;;10.60;99.90;;;;;;5056966;28;20511;-78
2023/09/24 05:25:41;;;;;;;11.10;5.85;;;10.60;99.90;;;;;;5038593;28;20029;-78
2023/09/24 05:28:07;;;;;;;8.93;5.37;;;10.60;99.90;;;;;;5056803;28;20113;-77
2023/09/24 05:30:34;;;;;;;9.25;5.43;;;10.60;99.90;;;;;;5056867;28;20059;-78
2023/09/24 05:33:00;;;;;;;8.57;5.30;;;10.50;99.90;;;;;;5056730;28;20120;-78
2023/09/24 05:35:33;;;;;;;8.67;5.20;;;10.50;99.90;;;;;;5037591;28;20120;-78
2023/09/24 05:37:58;;;;;;;7.60;5.10;;;10.50;99.90;;;;;;5056570;28;20139;-77
2023/09/24 05:40:24;;;;;;;11.00;4.93;;;10.50;99.90;;;;;;5056584;28;20104;-78
2023/09/24 05:42:50;;;;;;;8.00;5.20;;;10.50;99.90;;;;;;5055965;28;20477;-78
2023/09/24 05:45:19;;;;;;;8.27;4.93;;;10.50;99.90;;;;;;5056462;28;20103;-78
2023/09/24 05:47:45;;;;;;;9.07;5.20;;;10.50;99.90;;;;;;5056532;28;20460;-78
2023/09/24 05:50:11;;;;;;;8.60;5.63;;;10.50;99.90;;;;;;5056207;28;20025;-78
2023/09/24 05:52:37;;;;;;;9.07;5.87;;;10.50;99.90;;;;;;5056361;28;20051;-79
2023/09/24 05:55:03;;;;;;;10.10;5.17;;;10.50;99.90;;;;;;5056373;28;20079;-78
2023/09/24 05:57:29;;;;;;;11.70;6.63;;;10.50;99.90;;;;;;5037348;28;20033;-79
2023/09/24 05:59:56;;;;;;;10.30;5.82;;;10.50;99.90;;;;;;5038965;28;20116;-79
2023/09/24 06:02:24;;;;;;;11.02;6.22;;;10.50;99.90;;;;;;5072737;28;20078;-79
2023/09/24 06:04:53;;;;;;;10.00;6.27;;;10.60;99.90;;;;;;5075326;28;20078;-79
2023/09/24 06:07:19;;;;;;;13.03;6.80;;;10.60;99.90;;;;;;5075494;28;20032;-78
2023/09/24 06:09:46;;;;;;;10.35;6.55;;;10.60;99.90;;;;;;5057301;28;20036;-78
2023/09/24 06:12:12;;;;;;;10.77;6.30;;;10.60;99.90;;;;;;5058601;28;20111;-79
2023/09/24 06:14:40;;;;;;;13.60;6.70;;;10.60;99.90;;;;;;5058048;28;20033;-79
2023/09/24 06:17:06;;;;;;;10.73;6.73;;;10.70;99.90;;;;;;5074234;28;20032;-79
2023/09/24 06:19:32;;;;;;;11.35;6.68;;;10.70;99.90;;;;;;5076001;28;20021;-79
2023/09/24 06:21:58;;;;;;;13.87;7.33;;;10.70;99.90;;;;;;5075737;28;20024;-79
2023/09/24 06:24:24;;;;;;;13.30;7.37;;;10.80;99.90;;;;;;5070583;28;20095;-79
2023/09/24 06:26:49;;;;;;;11.53;6.83;;;10.80;99.90;;;;;;5055849;28;20029;-79
2023/09/24 06:29:15;;;;;;;11.52;7.07;;;10.80;99.90;;;;;;5055245;28;20439;-78
2023/09/24 06:31:41;;;;;;;11.63;6.25;;;10.90;99.90;;;;;;5056934;28;20546;-78
2023/09/24 06:34:07;;;;;;;10.50;6.40;;;10.90;99.90;;;;;;5039257;28;20021;-79
2023/09/24 06:36:33;;;;;;;12.00;6.43;;;11.00;99.90;;;;;;5069458;28;20028;-80
2023/09/24 06:39:07;;;;;;;9.68;5.80;;;11.10;99.90;;;;;;5086387;28;20526;-79
2023/09/24 06:41:33;;;;;;;9.95;6.38;;;11.10;99.90;;;;;;5092582;28;20115;-78
2023/09/24 06:43:59;;;;;;;10.00;6.07;;;11.20;99.90;;;;;;5087171;28;20055;-78
2023/09/24 06:51:35;;;;;;;7.78;5.10;;;11.40;99.90;;;;;;3103224;22;21354;-82
2023/09/24 06:54:01;;;;;;;9.77;6.00;;;11.40;99.90;;;;;;5003914;28;20038;-78
2023/09/24 06:56:26;;;;;;;9.13;5.68;;;11.50;99.90;;;;;;5005064;28;20030;-78
2023/09/24 06:58:52;;;;;;;8.55;4.88;;;11.50;99.90;;;;;;5008044;28;20034;-79
2023/09/24 07:01:18;;;;;;;8.25;4.68;;;11.50;99.90;;;;;;5014639;28;20493;-79
2023/09/24 07:03:43;;;;;;;10.70;5.35;;;11.60;99.90;;;;;;5006336;28;20045;-78
2023/09/24 07:06:09;;;;;;;8.57;5.07;;;11.60;99.90;;;;;;4996004;28;20026;-79
2023/09/24 07:08:35;;;;;;;9.50;4.68;;;11.70;99.90;;;;;;5015184;28;20385;-79
2023/09/24 07:11:19;;;;;;;9.63;5.72;;;11.70;99.90;;;;;;5017592;28;20576;-78
2023/09/24 07:13:45;;;;;;;11.00;4.88;;;11.70;99.90;;;;;;5002855;28;20014;-78
2023/09/24 07:16:11;;;;;;;20.63;5.50;;;11.70;99.90;;;;;;4999217;28;20437;-78
2023/09/24 07:18:37;;;;;;;8.23;5.15;;;11.70;99.90;;;;;;4999980;28;20046;-80
2023/09/24 07:21:02;;;;;;;7.95;5.05;;;11.80;99.90;;;;;;4986977;28;20025;-80
2023/09/24 07:23:28;;;;;;;10.43;4.78;;;11.80;99.90;;;;;;4999287;28;20380;-80
2023/09/24 07:25:54;;;;;;;9.90;5.35;;;11.90;99.90;;;;;;4999096;28;20030;-81
2023/09/24 07:28:21;;;;;;;10.85;5.32;;;11.90;99.90;;;;;;5001136;28;20053;-80
2023/09/24 07:30:46;;;;;;;10.48;4.80;;;11.90;99.90;;;;;;5001056;28;20018;-81
2023/09/24 07:33:12;;;;;;;7.68;4.13;;;11.90;99.90;;;;;;4999832;28;20480;-81
2023/09/24 07:35:38;;;;;;;7.30;3.70;;;11.90;99.90;;;;;;4996403;28;20015;-81
2023/09/24 07:38:07;;;;;;;9.02;4.75;;;11.90;99.90;;;;;;4991936;28;20026;-81
2023/09/24 07:40:32;;;;;;;6.93;3.95;;;12.00;99.90;;;;;;4995790;28;20404;-81
2023/09/24 07:42:58;;;;;;;7.70;4.05;;;11.90;99.90;;;;;;4996974;28;20034;-81
2023/09/24 07:45:23;;;;;;;8.00;4.43;;;12.10;99.90;;;;;;5006130;28;20030;-81
2023/09/24 07:47:49;;;;;;;8.45;4.03;;;12.10;99.90;;;;;;4996843;28;20461;-81
2023/09/24 07:50:14;;;;;;;9.68;3.72;;;12.10;99.90;;;;;;5013863;28;20097;-81
2023/09/24 07:52:40;;;;;;;8.15;4.88;;;12.20;99.90;;;;;;5013991;28;20394;-81
2023/09/24 07:55:06;;;;;;;8.45;3.92;;;12.20;99.90;;;;;;5014331;28;20538;-81
2023/09/24 07:57:32;;;;;;;6.28;3.17;;;12.30;99.90;;;;;;5010216;28;20100;-79
2023/09/24 07:59:58;;;;;;;6.97;3.72;;;12.40;99.90;;;;;;4984045;28;20101;-80
2023/09/24 08:02:23;;;;;;;9.20;3.17;;;12.40;99.90;;;;;;4994369;28;20378;-81
2023/09/24 08:04:49;;;;;;;11.32;4.40;;;12.50;99.90;;;;;;4976296;28;20386;-81
2023/09/24 08:07:15;;;;;;;7.53;3.47;;;12.50;99.90;;;;;;4993089;28;20030;-81
2023/09/24 08:09:42;;;;;;;7.18;3.42;;;12.60;99.90;;;;;;4994307;28;20105;-81
2023/09/24 08:12:07;;;;;;;6.65;2.80;;;12.60;99.90;;;;;;4994301;28;20025;-81
2023/09/24 08:14:33;;;;;;;6.72;3.60;;;12.70;99.90;;;;;;4994092;28;20022;-80
2023/09/24 08:16:59;;;;;;;6.68;3.05;;;12.70;99.90;;;;;;4993831;28;20057;-81
2023/09/24 08:19:30;;;;;;;5.78;2.97;;;12.80;99.90;;;;;;4993568;28;20026;-80
2023/09/24 08:21:58;;;;;;;6.47;2.90;;;12.90;99.90;;;;;;4994062;28;20049;-80
2023/09/24 08:24:24;;;;;;;5.63;2.50;;;12.90;99.90;;;;;;4993821;28;20386;-81
2023/09/24 08:26:50;;;;;;;5.32;2.45;;;13.00;99.90;;;;;;4980905;28;20034;-80
2023/09/24 08:29:15;;;;;;;11.85;2.65;;;13.10;99.90;;;;;;5002592;28;20034;-81
2023/09/24 08:31:41;;;;;;;8.75;3.10;;;13.10;99.90;;;;;;4985982;28;20022;-80
2023/09/24 08:34:07;;;;;;;6.93;2.90;;;13.20;99.90;;;;;;5002673;28;20101;-81
2023/09/24 08:36:33;;;;;;;7.68;2.22;;;13.20;99.90;;;;;;5007595;28;20105;-81
2023/09/24 08:39:01;;;;;;;6.75;2.25;;;13.40;99.90;;;;;;4995998;28;20156;-81
2023/09/24 08:41:26;;;;;;;6.30;2.05;;;13.40;99.90;;;;;;5013457;28;20052;-81
2023/09/24 08:43:59;;;;;;;7.00;2.53;;;13.50;99.90;;;;;;4995459;28;20022;-81
2023/09/24 08:46:32;;;;;;;5.15;1.73;;;13.50;99.90;;;;;;4995939;28;20037;-82
2023/09/24 08:48:58;;;;;;;4.82;2.03;;;13.60;99.90;;;;;;5013062;28;20034;-81
2023/09/24 08:51:27;;;;;;;4.60;1.85;;;13.70;99.90;;;;;;5012966;28;20036;-82
2023/09/24 08:54:05;;;;;;;4.97;2.00;;;13.80;99.90;;;;;;4995441;28;20064;-84
2023/09/24 08:56:30;;;;;;;5.05;1.30;;;13.90;99.90;;;;;;4995350;28;20026;-83
2023/09/24 08:58:59;;;;;;;5.00;1.73;;;13.90;99.90;;;;;;5012655;28;20348;-82
2023/09/24 09:01:25;;;;;;;5.35;1.55;;;14.00;99.90;;;;;;5012678;28;20088;-80
2023/09/24 09:03:52;;;;;;;6.10;2.05;;;14.10;99.90;;;;;;5012992;28;20073;-81
2023/09/24 09:06:31;;;;;;;5.38;1.80;;;14.20;99.90;;;;;;4995760;28;20072;-82
2023/09/24 09:08:57;;;;;;;4.63;1.58;;;14.20;99.90;;;;;;5013186;28;20030;-81
2023/09/24 09:11:46;;;;;;;6.50;1.80;;;14.20;99.90;;;;;;5010719;28;20080;-80
2023/09/24 09:14:13;;;;;;;3.80;1.88;;;14.30;99.90;;;;;;4994425;28;20030;-80
2023/09/24 09:16:57;;;;;;;5.18;1.83;;;14.30;99.90;;;;;;5012679;28;20033;-81
2023/09/24 09:19:24;;;;;;;5.75;1.98;;;14.40;99.90;;;;;;4995544;28;20400;-85
2023/09/24 09:21:50;;;;;;;5.25;1.55;;;14.40;99.90;;;;;;5013090;28;20044;-84
2023/09/24 09:24:26;;;;;;;6.45;1.65;;;14.50;99.90;;;;;;5013123;28;20113;-82
2023/09/24 09:26:58;;;;;;;8.20;1.58;;;14.60;99.90;;;;;;4995241;28;20038;-83
2023/09/24 09:29:25;;;;;;;5.53;1.48;;;14.70;99.90;;;;;;4987382;28;20428;-85
2023/09/24 09:31:50;;;;;;;4.95;1.40;;;14.70;99.90;;;;;;5012329;28;20492;-86
2023/09/24 09:34:17;;;;;;;5.05;1.45;;;14.80;99.90;;;;;;4995735;28;20109;-84
2023/09/24 09:36:43;;;;;;;5.43;1.45;;;14.90;99.90;;;;;;5012904;28;20099;-83
2023/09/24 09:39:09;;;;;;;5.63;1.23;;;15.00;99.90;;;;;;4995475;28;20018;-84
2023/09/24 09:41:35;;;;;;;4.90;1.63;;;15.00;99.90;;;;;;5012729;28;20041;-83
2023/09/24 09:44:05;;;;;;;5.72;1.55;;;15.10;99.90;;;;;;5013524;28;20034;-83
2023/09/24 09:46:34;;;;;;;7.65;1.70;;;15.20;99.90;;;;;;5012584;28;20404;-84
2023/09/24 09:49:04;;;;;;;6.78;1.90;;;15.30;99.90;;;;;;4995060;28;20469;-84
2023/09/24 09:51:45;;;;;;;4.05;1.40;;;15.40;99.90;;;;;;5012818;28;20052;-85
2023/09/24 09:54:12;;;;;;;3.80;1.20;;;15.50;99.90;;;;;;5012521;28;20054;-85
2023/09/24 09:56:41;;;;;;;5.75;1.50;;;15.70;99.90;;;;;;5012694;28;20034;-86
2023/09/24 09:59:07;;;;;;;6.97;1.55;;;16.00;99.90;;;;;;5012547;28;20531;-84
2023/09/24 10:01:34;;;;;;;5.40;1.40;;;16.20;99.50;;;;;;4994838;28;20026;-83
2023/09/24 10:04:03;;;;;;;6.18;1.50;;;16.40;99.10;;;;;;4996712;28;20037;-84
2023/09/24 10:06:33;;;;;;;5.63;1.05;;;16.70;98.50;;;;;;5016402;28;20022;-83
2023/09/24 10:08:59;;;;;;;5.53;1.15;;;16.90;98.20;;;;;;4998455;28;20426;-84
2023/09/24 10:11:33;;;;;;;2.25;0.80;;;17.00;97.90;;;;;;5016120;28;20064;-84
2023/09/24 10:14:01;;;;;;;3.65;0.93;;;17.30;97.40;;;;;;5015879;28;20366;-84
2023/09/24 10:16:36;;;;;;;2.85;0.77;;;17.50;97.00;;;;;;5015761;28;20025;-86
2023/09/24 10:19:04;;;;;;;3.38;0.88;;;17.60;96.60;;;;;;4998298;28;20034;-86
2023/09/24 10:21:39;;;;;;;3.28;0.90;;;17.80;96.20;;;;;;4998162;28;20500;-85
2023/09/24 10:24:14;;;;;;;5.30;1.30;;;18.00;95.70;;;;;;5016097;28;20033;-85
2023/09/24 10:27:03;;;;;;;6.65;1.27;;;18.20;95.10;;;;;;5016456;28;20053;-82
2023/09/24 10:29:53;;;;;;;4.15;0.73;;;18.40;94.30;;;;;;5015579;28;20436;-84
2023/09/24 10:32:23;;;;;;;5.57;0.88;;;18.70;93.20;;;;;;4988599;28;20433;-84
2023/09/24 10:34:54;;;;;;;3.17;0.70;;;18.90;92.80;;;;;;5015992;28;20472;-84
2023/09/24 10:37:28;;;;;;;3.03;0.85;;;19.10;91.70;;;;;;4998268;28;20186;-83
2023/09/24 10:42:28;;;;;;;3.97;0.90;;;19.40;90.60;;;;;;5015572;28;20029;-86
2023/09/24 10:45:12;;;;;;;2.85;0.50;;;19.70;89.50;;;;;;4997758;28;20040;-85
2023/09/24 10:47:45;;;;;;;4.47;0.60;;;19.90;88.00;;;;;;4998252;28;20076;-82
2023/09/24 10:50:15;;;;;;;3.60;0.50;;;20.10;87.60;;;;;;5015238;28;20101;-87
2023/09/24 10:52:54;;;;;;;4.10;0.68;;;20.30;86.50;;;;;;5015267;28;20522;-83
2023/09/24 10:55:33;;;;;;;2.78;0.60;;;20.50;85.10;;;;;;5015606;28;20084;-82
2023/09/24 10:58:15;;;;;;;4.40;0.90;;;20.60;83.80;;;;;;5015245;28;20037;-84
2023/09/24 11:00:49;;;;;;;3.33;0.45;;;20.90;82.60;;;;;;5015268;28;20057;-83
2023/09/24 11:03:15;;;;;;;4.15;0.50;;;21.10;82.40;;;;;;4996573;28;20477;-83
2023/09/24 11:05:42;;;;;;;3.47;0.70;;;21.40;81.40;;;;;;5015081;28;20105;-84
2023/09/24 11:08:09;;;;;;;2.33;0.70;;;21.60;80.30;;;;;;5015195;28;20030;-82
2023/09/24 11:10:35;;;;;;;4.93;0.80;;;21.90;79.10;;;;;;5015409;28;20037;-86
2023/09/24 11:13:04;;;;;;;2.60;0.52;;;22.10;77.90;;;;;;5014886;28;20037;-84
2023/09/24 11:15:38;;;;;;;3.03;0.50;;;22.30;77.20;;;;;;5014932;28;20018;-84
2023/09/24 11:18:04;;;;;;;4.00;0.60;;;22.60;76.70;;;;;;5014852;28;20021;-81
2023/09/24 11:20:31;;;;;;;2.85;0.70;;;22.70;75.30;;;;;;5014815;28;20034;-83
2023/09/24 11:22:57;;;;;;;5.00;0.85;;;23.00;73.50;;;;;;4997396;28;20374;-82
2023/09/24 11:25:24;;;;;;;2.80;0.55;;;23.20;73.10;;;;;;5015135;28;20022;-82
2023/09/24 11:27:54;;;;;;;3.38;0.43;;;23.40;72.10;;;;;;5014643;28;20031;-83
2023/09/24 11:30:22;;;;;;;3.67;0.70;;;23.60;70.30;;;;;;5014722;28;20037;-84
2023/09/24 11:32:50;;;;;;;3.70;0.60;;;23.80;69.20;;;;;;4997164;28;20033;-82
2023/09/24 11:35:19;;;;;;;4.05;0.60;;;23.80;68.60;;;;;;5014945;28;20022;-88
2023/09/24 11:37:50;;;;;;;3.17;0.52;;;24.00;67.40;;;;;;5014954;28;20033;-85
2023/09/24 11:40:33;;;;;;;2.58;0.60;;;24.20;67.00;;;;;;5015675;28;20049;-85
2023/09/24 11:43:11;;;;;;;3.30;0.80;;;24.30;65.40;;;;;;5014575;28;20038;-84
2023/09/24 11:46:03;;;;;;;1.65;0.45;;;24.40;65.40;;;;;;4997899;28;20373;-85
2023/09/24 11:48:29;;;;;;;3.88;0.65;;;24.40;64.70;;;;;;5010535;28;20041;-82
2023/09/24 11:51:01;;;;;;;2.33;0.70;;;24.60;64.20;;;;;;5014489;28;20034;-83
2023/09/24 11:53:33;;;;;;;3.60;0.68;;;24.70;62.80;;;;;;5014124;28;20041;-84
2023/09/24 11:55:59;;;;;;;2.40;0.50;;;24.80;62.80;;;;;;4996748;28;20064;-84
2023/09/24 11:58:26;;;;;;;3.08;0.73;;;25.00;61.80;;;;;;4996519;28;20024;-83
2023/09/24 12:00:53;;;;;;;3.55;0.55;;;25.30;61.60;;;;;;5014015;28;20049;-84
2023/09/24 12:03:22;;;;;;;3.70;0.68;;;25.40;61.00;;;;;;5014099;28;20026;-83
2023/09/24 12:05:48;;;;;;;2.55;0.60;;;25.60;60.50;;;;;;5014156;28;20109;-83
2023/09/24 12:08:14;;;;;;;3.28;0.70;;;25.80;59.70;;;;;;5014213;28;20022;-80
2023/09/24 12:10:45;;;;;;;1.92;0.50;;;26.00;59.60;;;;;;5013592;28;20033;-82
2023/09/24 12:13:11;;;;;;;4.63;0.80;;;26.10;58.90;;;;;;5014068;28;20104;-82
2023/09/24 12:15:37;;;;;;;3.08;0.60;;;26.10;58.40;;;;;;5014220;28;20022;-84
2023/09/24 12:18:05;;;;;;;2.70;0.50;;;26.20;58.30;;;;;;5013967;28;20029;-81
2023/09/24 12:20:39;;;;;;;3.33;0.70;;;26.30;58.20;;;;;;5013732;28;20104;-84
2023/09/24 12:23:07;;;;;;;2.97;0.70;;;26.40;57.40;;;;;;5013710;28;20481;-82
2023/09/24 12:25:36;;;;;;;4.35;0.60;;;26.40;57.00;;;;;;5013947;28;20049;-84
2023/09/24 12:28:06;;;;;;;1.63;0.70;;;26.40;57.10;;;;;;4996194;28;20380;-82
2023/09/24 12:30:33;;;;;;;2.97;0.60;;;26.30;56.90;;;;;;5014148;28;20380;-83
2023/09/24 12:32:59;;;;;;;2.70;0.60;;;26.20;56.70;;;;;;5013699;28;20026;-85
2023/09/24 12:35:24;;;;;;;1.73;0.45;;;26.10;57.50;;;;;;5013989;28;20420;-83
2023/09/24 12:37:54;;;;;;;4.03;0.60;;;26.20;56.50;;;;;;5013336;28;20036;-85
2023/09/24 12:40:21;;;;;;;1.13;0.40;;;26.40;55.90;;;;;;5013406;28;20030;-85
2023/09/24 12:42:46;;;;;;;2.83;0.50;;;26.70;55.60;;;;;;4996267;28;20042;-86
2023/09/24 12:45:12;;;;;;;2.03;0.52;;;26.90;55.00;;;;;;5002600;28;20501;-83
2023/09/24 12:47:38;;;;;;;2.83;0.57;;;27.10;54.70;;;;;;4999157;28;20061;-85
2023/09/24 12:50:09;;;;;;;2.38;0.70;;;27.20;54.30;;;;;;4999214;28;20018;-85
2023/09/24 12:52:37;;;;;;;1.95;0.70;;;27.30;53.90;;;;;;5002746;28;20040;-85
2023/09/24 12:55:06;;;;;;;4.97;0.65;;;27.40;53.50;;;;;;5002224;28;20017;-84
2023/09/24 12:57:36;;;;;;;2.67;0.60;;;27.60;52.70;;;;;;5004027;28;20018;-82